This is the latest recevied weather packets stored in our database for station/object WG5EEK. If no packets are shown the sender has not sent any weather packets the latest 10 day(s).
| Time | Temp. | Humidity | Pressure | Rain* | Wind** | Luminosity | Snow |
|---|---|---|---|---|---|---|---|
| 1778140442 | 11.11° C | 80% | 996.1 hPa | - | - | - | - |
| 1778137923 | 11.67° C | 80% | 995.8 hPa | - | - | - | - |
| 1778137563 | 11.67° C | 80% | 996.1 hPa | - | - | - | - |
| 1778130723 | 12.78° C | 79% | 993.5 hPa | - | - | - | - |
| 1778128922 | 12.78° C | 79% | 993.3 hPa | - | - | - | - |
| 1778127122 | 13.33° C | 78% | 992.8 hPa | - | - | - | - |
| 1778126762 | 13.33° C | 78% | 992.7 hPa | - | - | - | - |
| 1778126041 | 13.33° C | 78% | 992 hPa | - | - | - | - |
| 1778119563 | 15° C | 76% | 988.7 hPa | - | - | - | - |
| 1778117399 | 17.22° C | 71% | 985.5 hPa | - | - | - | - |
| 1778117068 | 17.22° C | 70% | 985 hPa | - | - | - | - |
| 1778115963 | 17.78° C | 67% | 984.2 hPa | - | - | - | - |
| 1778115602 | 17.78° C | 66% | 983.9 hPa | - | - | - | - |
| 1778113801 | 18.33° C | 63% | 983.1 hPa | - | - | - | - |
| 1778113439 | 18.33° C | 63% | 983.1 hPa | - | - | - | - |
| 1778111283 | 18.89° C | 61% | 982.5 hPa | - | - | - | - |
| 1778110921 | 18.33° C | 61% | 982.6 hPa | - | - | - | - |
| 1778110227 | 18.89° C | 61% | 982.3 hPa | - | - | - | - |
| 1778108065 | 18.89° C | 63% | 981.9 hPa | - | - | - | - |
| 1778105884 | 18.33° C | 63% | 981.6 hPa | - | - | - | - |
| 1778104444 | 18.33° C | 66% | 981.5 hPa | - | - | - | - |
| 1778100843 | 18.33° C | 65% | 982.6 hPa | - | - | - | - |
| 1778099402 | 18.33° C | 65% | 983 hPa | - | - | - | - |
| 1778097603 | 18.33° C | 65% | 983.2 hPa | - | - | - | - |
| 1778095082 | 17.78° C | 66% | 984.5 hPa | - | - | - | - |
* Rain since midnight (hover to see other rain measurements)
** Current wind speed in m/s (hover to see current wind gust speed)